Time;durP1;ratioP1;P1;durP2;ratioP2;P2;SDS_P1;SDS_P2;PMS_P1;PMS_P2;Temp;Humidity;BMP_temperature;BMP_pressure;BME280_temperature;BME280_humidity;BME280_pressure;Samples;Min_cycle;Max_cycle;Signal;HPM_P1;HPM_P2
2022/07/21 00:00:36;;;;;;;6.90;3.03;;;;;;;18.06;82.54;100219.41;5013591;28;20053;-74
2022/07/21 00:03:09;;;;;;;7.80;3.13;;;;;;;18.00;83.41;100217.16;5014254;28;20133;-74
2022/07/21 00:05:37;;;;;;;6.03;3.10;;;;;;;18.03;83.16;100219.66;5029902;28;20049;-75
2022/07/21 00:08:05;;;;;;;7.95;3.50;;;;;;;17.94;83.92;100221.25;5032902;28;20092;-74
2022/07/21 00:10:33;;;;;;;7.70;3.10;;;;;;;17.79;84.10;100220.66;5033167;28;20068;-75
2022/07/21 00:13:00;;;;;;;6.63;3.08;;;;;;;17.73;84.86;100215.66;5033228;28;20042;-74
2022/07/21 00:15:29;;;;;;;9.15;3.20;;;;;;;17.56;85.87;100225.22;5033050;28;20049;-74
2022/07/21 00:17:59;;;;;;;7.53;3.50;;;;;;;17.41;86.77;100225.44;5032396;28;20046;-74
2022/07/21 00:20:27;;;;;;;6.03;3.30;;;;;;;17.35;86.84;100221.34;5032961;28;20045;-74
2022/07/21 00:22:55;;;;;;;8.27;3.60;;;;;;;-147.76;100.00;60361.69;5032732;28;20053;-74
2022/07/21 00:25:24;;;;;;;6.95;3.22;;;;;;;-147.76;100.00;60361.69;5032990;28;20068;-74
2022/07/21 00:27:51;;;;;;;8.05;3.72;;;;;;;-147.76;100.00;60361.69;5033054;28;20411;-74
2022/07/21 00:30:19;;;;;;;7.97;3.50;;;;;;;-147.76;100.00;60361.69;5033053;28;20396;-74
2022/07/21 00:32:46;;;;;;;11.60;3.67;;;;;;;-147.76;100.00;60361.69;5033132;28;20048;-75
2022/07/21 00:35:16;;;;;;;7.93;3.35;;;;;;;-147.76;100.00;60361.69;5032876;28;20057;-74
2022/07/21 00:37:44;;;;;;;7.40;3.25;;;;;;;-147.76;100.00;60361.69;5032600;28;20495;-75
2022/07/21 00:40:13;;;;;;;5.97;3.22;;;;;;;-147.76;100.00;60361.69;5032974;28;20045;-74
2022/07/21 00:42:41;;;;;;;8.40;3.38;;;;;;;-147.76;100.00;60361.69;5034866;28;20601;-74
2022/07/21 00:45:11;;;;;;;7.32;3.42;;;;;;;-147.76;100.00;60361.69;5036937;28;20045;-74
2022/07/21 00:47:39;;;;;;;6.60;3.35;;;;;;;-147.76;100.00;60361.69;5030435;28;20499;-75
2022/07/21 00:50:09;;;;;;;7.78;4.25;;;;;;;-147.76;100.00;60361.69;5016987;28;20041;-74
2022/07/21 00:52:39;;;;;;;7.88;3.17;;;;;;;-147.76;100.00;60361.69;5016447;28;20100;-74
2022/07/21 00:55:09;;;;;;;7.68;3.63;;;;;;;-147.76;100.00;60361.69;5016800;28;20052;-74
2022/07/21 00:57:36;;;;;;;6.85;3.40;;;;;;;-147.76;100.00;60361.69;5016840;28;20057;-75
2022/07/21 01:00:05;;;;;;;7.32;3.65;;;;;;;-147.76;100.00;60361.69;5016885;28;20042;-74
2022/07/21 01:02:36;;;;;;;8.32;3.38;;;;;;;-147.76;100.00;60361.69;5016845;28;20045;-74
2022/07/21 01:05:03;;;;;;;7.38;3.50;;;;;;;-147.76;100.00;60361.69;5017896;28;20502;-74
2022/07/21 01:07:31;;;;;;;7.88;3.60;;;;;;;-147.76;100.00;60361.69;5016286;28;20109;-74
2022/07/21 01:10:00;;;;;;;7.85;3.53;;;;;;;-147.76;100.00;60361.69;5016925;28;20046;-74
2022/07/21 01:12:28;;;;;;;8.73;3.65;;;;;;;-147.76;100.00;60361.69;5016416;28;20041;-75
2022/07/21 01:14:56;;;;;;;7.03;3.25;;;;;;;-147.76;100.00;60361.69;5016483;28;20487;-75
2022/07/21 01:17:23;;;;;;;7.65;3.55;;;;;;;-147.76;100.00;60361.69;5016483;28;20037;-74
2022/07/21 01:19:51;;;;;;;7.82;3.55;;;;;;;-147.76;100.00;60361.69;5016450;28;20129;-75
2022/07/21 01:22:20;;;;;;;9.18;3.60;;;;;;;-147.76;100.00;60361.69;5015940;28;20495;-75
2022/07/21 01:24:48;;;;;;;9.48;3.80;;;;;;;-147.76;100.00;60361.69;5016296;28;20045;-75
2022/07/21 01:27:15;;;;;;;7.88;3.70;;;;;;;-147.76;100.00;60361.69;5016098;28;20057;-74
2022/07/21 01:29:43;;;;;;;10.80;3.90;;;;;;;-147.76;100.00;60361.69;5016241;28;20050;-74
2022/07/21 01:32:10;;;;;;;8.15;3.58;;;;;;;-147.76;100.00;60361.69;5016324;28;20049;-74
2022/07/21 01:34:38;;;;;;;7.95;3.60;;;;;;;-147.76;100.00;60361.69;5016081;28;20060;-75
2022/07/21 01:37:06;;;;;;;8.70;3.55;;;;;;;-147.76;100.00;60361.69;5015737;28;20046;-75
2022/07/21 01:42:19;;;;;;;;;;;;;;;-147.76;100.00;60361.69;5017615;28;20054;-74
2022/07/21 01:44:47;;;;;;;9.40;4.05;;;;;;;-147.76;100.00;60361.69;5016200;28;19929;-74
2022/07/21 01:47:14;;;;;;;8.10;3.70;;;;;;;-147.76;100.00;60361.69;5015629;28;20053;-74
2022/07/21 01:49:42;;;;;;;11.10;3.75;;;;;;;-147.76;100.00;60361.69;5015517;28;20186;-75
2022/07/21 01:52:11;;;;;;;8.60;3.83;;;;;;;-147.76;100.00;60361.69;5015836;28;20484;-74
2022/07/21 01:54:40;;;;;;;8.55;3.63;;;;;;;-147.76;100.00;60361.69;5014742;28;20046;-75
2022/07/21 01:57:08;;;;;;;10.75;3.88;;;;;;;-147.76;100.00;60361.69;5015656;28;20108;-74
2022/07/21 01:59:35;;;;;;;9.40;4.18;;;;;;;-147.76;100.00;60361.69;5015629;28;20050;-74
2022/07/21 02:02:03;;;;;;;9.70;4.00;;;;;;;-147.76;100.00;60361.69;5015715;28;20058;-75
2022/07/21 02:04:31;;;;;;;8.95;4.13;;;;;;;-147.76;100.00;60361.69;5015228;28;20050;-75
2022/07/21 02:06:58;;;;;;;7.82;3.90;;;;;;;-147.76;100.00;60361.69;5015605;28;20042;-75
2022/07/21 02:09:26;;;;;;;8.88;3.90;;;;;;;-147.76;100.00;60361.69;5015533;28;20057;-75
2022/07/21 02:11:55;;;;;;;7.63;3.95;;;;;;;-147.76;100.00;60361.69;5015255;28;20049;-75
2022/07/21 02:14:22;;;;;;;8.57;4.20;;;;;;;-147.76;100.00;60361.69;5015306;28;20045;-74
2022/07/21 02:16:50;;;;;;;8.82;3.90;;;;;;;-147.76;100.00;60361.69;5015407;28;20045;-74
2022/07/21 02:19:18;;;;;;;9.38;4.15;;;;;;;-147.76;100.00;60361.69;5015100;28;20048;-74
2022/07/21 02:21:45;;;;;;;9.57;4.20;;;;;;;-147.76;100.00;60361.69;5015316;28;20050;-74
2022/07/21 02:24:12;;;;;;;9.02;4.07;;;;;;;-147.76;100.00;60361.69;5015292;28;20499;-75
2022/07/21 02:26:40;;;;;;;11.65;4.10;;;;;;;-147.76;100.00;60361.69;5015064;28;20077;-75
2022/07/21 02:29:09;;;;;;;9.38;4.13;;;;;;;-147.76;100.00;60361.69;5015064;28;20049;-74
2022/07/21 02:31:37;;;;;;;8.50;4.10;;;;;;;-147.76;100.00;60361.69;5015183;28;20046;-74
2022/07/21 02:34:06;;;;;;;11.45;4.30;;;;;;;-147.76;100.00;60361.69;5014830;28;20042;-74
2022/07/21 02:36:33;;;;;;;10.40;4.38;;;;;;;-147.76;100.00;60361.69;5014938;28;20503;-74
2022/07/21 02:39:01;;;;;;;8.30;3.55;;;;;;;-147.76;100.00;60361.69;5028331;28;20045;-74
2022/07/21 02:41:29;;;;;;;7.90;3.80;;;;;;;-147.76;100.00;60361.69;5034247;28;20057;-75
2022/07/21 02:43:56;;;;;;;8.32;3.95;;;;;;;-147.76;100.00;60361.69;5033876;28;20392;-74
2022/07/21 02:46:25;;;;;;;10.40;4.70;;;;;;;-147.76;100.00;60361.69;5034476;28;20407;-75
2022/07/21 02:48:53;;;;;;;9.25;3.90;;;;;;;-147.76;100.00;60361.69;5033599;28;20122;-75
2022/07/21 02:51:20;;;;;;;9.50;4.47;;;;;;;-147.76;100.00;60361.69;5034852;28;20042;-75
2022/07/21 02:53:48;;;;;;;11.50;4.47;;;;;;;-147.76;100.00;60361.69;5033990;28;20045;-75
2022/07/21 02:56:17;;;;;;;10.40;4.80;;;;;;;-147.76;100.00;60361.69;5034242;28;20123;-74
2022/07/21 02:58:45;;;;;;;10.13;5.15;;;;;;;-147.76;100.00;60361.69;5034022;28;20045;-75
2022/07/21 03:01:12;;;;;;;12.20;4.68;;;;;;;-147.76;100.00;60361.69;5034267;28;20054;-74
2022/07/21 03:03:41;;;;;;;9.10;4.65;;;;;;;-147.76;100.00;60361.69;5033472;28;20075;-74
2022/07/21 03:06:09;;;;;;;9.60;4.70;;;;;;;-147.76;100.00;60361.69;5034015;28;20051;-74
2022/07/21 03:08:37;;;;;;;9.65;4.25;;;;;;;-147.76;100.00;60361.69;5033668;28;20045;-74
2022/07/21 03:11:05;;;;;;;9.48;4.20;;;;;;;-147.76;100.00;60361.69;5032545;28;20045;-74
2022/07/21 03:13:32;;;;;;;9.48;4.35;;;;;;;-147.76;100.00;60361.69;5034030;28;20046;-74
2022/07/21 03:16:00;;;;;;;11.18;4.57;;;;;;;-147.76;100.00;60361.69;5034062;28;20045;-74
2022/07/21 03:18:27;;;;;;;10.65;5.10;;;;;;;-147.76;100.00;60361.69;5033630;28;20096;-74
2022/07/21 03:20:58;;;;;;;10.85;4.80;;;;;;;-147.76;100.00;60361.69;5034021;28;20045;-74
2022/07/21 03:23:25;;;;;;;13.05;5.05;;;;;;;-147.76;100.00;60361.69;5035608;28;20071;-74
2022/07/21 03:25:53;;;;;;;9.85;4.80;;;;;;;-147.76;100.00;60361.69;5033879;28;20045;-74
2022/07/21 03:28:21;;;;;;;14.30;5.03;;;;;;;-147.76;100.00;60361.69;5033708;28;20120;-75
2022/07/21 03:30:48;;;;;;;11.55;6.35;;;;;;;-147.76;100.00;60361.69;5033586;28;20041;-74
2022/07/21 03:33:16;;;;;;;9.35;4.90;;;;;;;-147.76;100.00;60361.69;5033734;28;20049;-74
2022/07/21 03:35:44;;;;;;;10.32;5.15;;;;;;;-147.76;100.00;60361.69;5033570;28;20037;-74
2022/07/21 03:38:13;;;;;;;10.50;4.93;;;;;;;-147.76;100.00;60361.69;5033810;28;20049;-74
2022/07/21 03:40:41;;;;;;;14.88;4.75;;;;;;;-147.76;100.00;60361.69;5033732;28;20411;-75
2022/07/21 03:43:09;;;;;;;14.23;6.63;;;;;;;-147.76;100.00;60361.69;5033613;28;20045;-75
2022/07/21 03:45:37;;;;;;;9.98;5.22;;;;;;;-147.76;100.00;60361.69;5032912;28;20045;-74
2022/07/21 03:48:06;;;;;;;10.35;4.85;;;;;;;-147.76;100.00;60361.69;5033275;28;20495;-74
2022/07/21 03:50:35;;;;;;;12.07;4.75;;;;;;;-147.76;100.00;60361.69;5033380;28;20065;-75
2022/07/21 03:53:02;;;;;;;10.52;4.43;;;;;;;-147.76;100.00;60361.69;5032276;28;20045;-74
2022/07/21 03:55:32;;;;;;;9.90;4.30;;;;;;;-147.76;100.00;60361.69;5032375;28;20037;-74
2022/07/21 03:58:01;;;;;;;9.65;4.65;;;;;;;-147.76;100.00;60361.69;5033301;28;21199;-74
2022/07/21 04:00:31;;;;;;;10.00;4.60;;;;;;;-147.76;100.00;60361.69;5032889;28;20045;-74
2022/07/21 04:02:59;;;;;;;9.05;4.55;;;;;;;-147.76;100.00;60361.69;5033812;28;20052;-74
2022/07/21 04:05:28;;;;;;;9.25;4.35;;;;;;;-147.76;100.00;60361.69;5033332;28;20049;-74
2022/07/21 04:07:56;;;;;;;9.77;4.22;;;;;;;-147.76;100.00;60361.69;5033171;28;20060;-74
2022/07/21 04:10:27;;;;;;;9.23;4.68;;;;;;;-147.76;100.00;60361.69;5033330;28;20557;-75
2022/07/21 04:12:57;;;;;;;9.38;4.72;;;;;;;-147.76;100.00;60361.69;5034041;28;20068;-75
2022/07/21 04:15:25;;;;;;;9.52;4.60;;;;;;;-147.76;100.00;60361.69;5033325;28;20049;-74
2022/07/21 04:17:54;;;;;;;10.27;4.55;;;;;;;-147.76;100.00;60361.69;5032381;28;20046;-74
2022/07/21 04:20:21;;;;;;;10.93;5.63;;;;;;;-147.76;100.00;60361.69;5033180;28;20046;-74
2022/07/21 04:22:50;;;;;;;10.35;5.40;;;;;;;-147.76;100.00;60361.69;5033023;28;20076;-74
2022/07/21 04:25:18;;;;;;;11.13;5.20;;;;;;;-147.76;100.00;60361.69;5033029;28;20045;-74
2022/07/21 04:27:46;;;;;;;9.02;4.55;;;;;;;-147.76;100.00;60361.69;5032682;28;20041;-74
2022/07/21 04:30:17;;;;;;;12.50;4.63;;;;;;;-147.76;100.00;60361.69;5032648;28;20103;-74
2022/07/21 04:32:45;;;;;;;8.45;4.50;;;;;;;-147.76;100.00;60361.69;5034961;28;20045;-74
2022/07/21 04:35:13;;;;;;;13.35;5.10;;;;;;;-147.76;100.00;60361.69;5032904;28;20042;-74
2022/07/21 04:37:41;;;;;;;11.07;5.15;;;;;;;-147.76;100.00;60361.69;5032853;28;20049;-74
2022/07/21 04:40:10;;;;;;;14.40;4.60;;;;;;;-147.76;100.00;60361.69;5032952;28;20049;-74
2022/07/21 04:42:38;;;;;;;10.23;4.38;;;;;;;-147.76;100.00;60361.69;5032795;28;20056;-74
2022/07/21 04:45:07;;;;;;;13.00;6.40;;;;;;;-147.76;100.00;60361.69;5032408;28;20061;-74
2022/07/21 04:47:45;;;;;;;12.40;6.65;;;;;;;-147.76;100.00;60361.69;5032416;28;20049;-75
2022/07/21 04:50:13;;;;;;;10.27;4.95;;;;;;;-147.76;100.00;60361.69;5034296;28;20045;-75
2022/07/21 04:52:41;;;;;;;9.23;4.72;;;;;;;-147.76;100.00;60361.69;5032823;28;20053;-74
2022/07/21 04:55:09;;;;;;;10.00;5.18;;;;;;;-147.76;100.00;60361.69;5032789;28;20041;-74
2022/07/21 04:57:41;;;;;;;9.13;4.45;;;;;;;-147.76;100.00;60361.69;5032681;28;20396;-74
2022/07/21 05:00:10;;;;;;;11.73;4.85;;;;;;;-147.76;100.00;60361.69;5032671;28;20046;-74
2022/07/21 05:02:38;;;;;;;9.32;4.45;;;;;;;-147.76;100.00;60361.69;5032671;28;20052;-74
2022/07/21 05:05:08;;;;;;;9.50;4.60;;;;;;;-147.76;100.00;60361.69;5032524;28;20050;-77
2022/07/21 05:07:35;;;;;;;11.38;4.90;;;;;;;-147.76;100.00;60361.69;5032601;28;20052;-74
2022/07/21 05:10:05;;;;;;;11.00;4.57;;;;;;;-147.76;100.00;60361.69;5032650;28;20049;-76
2022/07/21 05:12:33;;;;;;;9.57;4.97;;;;;;;-147.76;100.00;60361.69;5032248;28;20045;-76
2022/07/21 05:15:00;;;;;;;14.60;7.20;;;;;;;-147.76;100.00;60361.69;5032371;28;20052;-76
2022/07/21 05:17:28;;;;;;;10.45;5.40;;;;;;;-147.76;100.00;60361.69;5032594;28;20045;-76
2022/07/21 05:19:56;;;;;;;10.60;4.63;;;;;;;-147.76;100.00;60361.69;5032633;28;20050;-76
2022/07/21 05:22:24;;;;;;;11.05;4.60;;;;;;;-147.76;100.00;60361.69;5032372;28;20046;-76
2022/07/21 05:24:53;;;;;;;8.65;3.88;;;;;;;-147.76;100.00;60361.69;5032524;28;20052;-76
2022/07/21 05:27:20;;;;;;;9.10;4.00;;;;;;;-147.76;100.00;60361.69;5032297;28;20053;-75
2022/07/21 05:29:48;;;;;;;12.77;7.03;;;;;;;-147.76;100.00;60361.69;5034538;28;20045;-76
2022/07/21 05:32:15;;;;;;;11.00;4.75;;;;;;;-147.76;100.00;60361.69;5035829;28;20585;-76
2022/07/21 05:34:43;;;;;;;7.25;3.58;;;;;;;-147.76;100.00;60361.69;5036149;28;20060;-77
2022/07/21 05:37:10;;;;;;;8.50;3.42;;;;;;;-147.76;100.00;60361.69;5035916;28;20046;-76
2022/07/21 05:39:40;;;;;;;8.60;3.40;;;;;;;-147.76;100.00;60361.69;5035811;28;20045;-76
2022/07/21 05:42:07;;;;;;;7.43;3.10;;;;;;;-147.76;100.00;60361.69;5035492;28;20053;-75
2022/07/21 05:44:35;;;;;;;8.05;3.10;;;;;;;-147.76;100.00;60361.69;5035829;28;20045;-76
2022/07/21 05:47:03;;;;;;;8.10;2.88;;;;;;;-147.76;100.00;60361.69;5035496;28;20148;-75
2022/07/21 05:49:30;;;;;;;6.28;2.70;;;;;;;-147.76;100.00;60361.69;5037297;28;20052;-76
2022/07/21 05:51:58;;;;;;;7.78;3.00;;;;;;;-147.76;100.00;60361.69;5035847;28;20045;-76
2022/07/21 05:54:25;;;;;;;7.20;2.80;;;;;;;-147.76;100.00;60361.69;5035694;28;20049;-74
2022/07/21 05:56:55;;;;;;;9.82;2.60;;;;;;;-147.76;100.00;60361.69;5035190;28;20049;-74
2022/07/21 05:59:22;;;;;;;7.03;2.30;;;;;;;-147.76;100.00;60361.69;5035610;28;20053;-74
2022/07/21 06:01:50;;;;;;;5.65;2.40;;;;;;;-147.76;100.00;60361.69;5035543;28;20453;-73
2022/07/21 06:04:17;;;;;;;7.50;2.22;;;;;;;-147.76;100.00;60361.69;5035493;28;20784;-73
2022/07/21 06:06:45;;;;;;;6.93;2.10;;;;;;;-147.76;100.00;60361.69;5035431;28;20050;-73
2022/07/21 06:09:13;;;;;;;12.48;2.40;;;;;;;-147.76;100.00;60361.69;5035383;28;20049;-74
2022/07/21 06:11:40;;;;;;;4.25;2.42;;;;;;;-147.76;100.00;60361.69;5035035;28;20041;-73
2022/07/21 06:14:09;;;;;;;6.47;2.15;;;;;;;-147.76;100.00;60361.69;5035492;28;20048;-73
2022/07/21 06:16:37;;;;;;;4.57;2.30;;;;;;;-147.76;100.00;60361.69;5031801;28;20423;-73
2022/07/21 06:19:04;;;;;;;8.00;3.30;;;;;;;-147.76;100.00;60361.69;5031464;28;20049;-73
2022/07/21 06:21:32;;;;;;;4.82;2.17;;;;;;;-147.76;100.00;60361.69;5031434;28;20053;-73
2022/07/21 06:24:00;;;;;;;5.35;2.05;;;;;;;-147.76;100.00;60361.69;5031404;28;20053;-73
2022/07/21 06:26:27;;;;;;;4.32;2.28;;;;;;;-147.76;100.00;60361.69;5031148;28;20063;-73
2022/07/21 06:28:55;;;;;;;7.57;3.00;;;;;;;-147.76;100.00;60361.69;5031705;28;20057;-73
2022/07/21 06:31:24;;;;;;;9.27;3.90;;;;;;;-147.76;100.00;60361.69;5031269;28;20046;-73
2022/07/21 06:33:52;;;;;;;10.23;3.28;;;;;;;-147.76;100.00;60361.69;5031041;28;20061;-73
2022/07/21 06:36:19;;;;;;;7.00;2.47;;;;;;;-147.76;100.00;60361.69;5031029;28;20060;-73
2022/07/21 06:38:47;;;;;;;5.82;2.30;;;;;;;-147.76;100.00;60361.69;5030766;28;20100;-72
2022/07/21 06:41:15;;;;;;;6.38;2.00;;;;;;;-147.76;100.00;60361.69;5030407;28;20515;-73
2022/07/21 06:43:42;;;;;;;6.13;2.20;;;;;;;-147.76;100.00;60361.69;5031036;28;20050;-73
2022/07/21 06:46:10;;;;;;;5.63;2.15;;;;;;;-147.76;100.00;60361.69;5030596;28;20102;-72
2022/07/21 06:48:39;;;;;;;4.88;2.10;;;;;;;-147.76;100.00;60361.69;5017032;28;20061;-72
2022/07/21 06:51:07;;;;;;;5.47;1.90;;;;;;;-147.76;100.00;60361.69;5011102;28;20046;-72
2022/07/21 06:53:34;;;;;;;5.05;2.20;;;;;;;-147.76;100.00;60361.69;5011210;28;20050;-73
2022/07/21 06:56:02;;;;;;;4.30;2.13;;;;;;;-147.76;100.00;60361.69;5010354;28;20088;-73
2022/07/21 06:58:29;;;;;;;6.50;2.45;;;;;;;-147.76;100.00;60361.69;5011082;28;20052;-73
2022/07/21 07:00:57;;;;;;;5.70;2.13;;;;;;;-147.76;100.00;60361.69;5011095;28;20050;-73
2022/07/21 07:03:24;;;;;;;7.38;2.20;;;;;;;-147.76;100.00;60361.69;5010955;28;20080;-73
2022/07/21 07:05:53;;;;;;;7.07;2.00;;;;;;;-147.76;100.00;60361.69;5011111;28;20108;-72
2022/07/21 07:08:21;;;;;;;5.20;2.13;;;;;;;-147.76;100.00;60361.69;5010481;28;20096;-73
2022/07/21 07:10:49;;;;;;;7.10;2.30;;;;;;;-147.76;100.00;60361.69;5010972;28;20091;-73
2022/07/21 07:13:17;;;;;;;4.68;2.10;;;;;;;-147.76;100.00;60361.69;5010784;28;20054;-73
2022/07/21 07:15:45;;;;;;;5.13;2.10;;;;;;;-147.76;100.00;60361.69;5010558;28;20054;-73
2022/07/21 07:18:12;;;;;;;6.28;2.20;;;;;;;-147.76;100.00;60361.69;5010939;28;20046;-73
2022/07/21 07:20:40;;;;;;;7.05;2.10;;;;;;;-147.76;100.00;60361.69;5010261;28;20454;-73
2022/07/21 07:23:09;;;;;;;5.55;2.08;;;;;;;-147.76;100.00;60361.69;5010281;28;20057;-73
2022/07/21 07:25:38;;;;;;;4.07;2.10;;;;;;;-147.76;100.00;60361.69;5009959;28;20562;-73
2022/07/21 07:28:08;;;;;;;5.93;2.20;;;;;;;-147.76;100.00;60361.69;5010377;28;20443;-73
2022/07/21 07:30:36;;;;;;;7.28;2.38;;;;;;;-147.76;100.00;60361.69;5010393;28;20050;-73
2022/07/21 07:33:04;;;;;;;5.20;2.40;;;;;;;-147.76;100.00;60361.69;5010072;28;20080;-73
2022/07/21 07:35:31;;;;;;;4.00;2.20;;;;;;;-147.76;100.00;60361.69;5015291;28;20502;-73
2022/07/21 07:37:59;;;;;;;5.43;1.92;;;;;;;-147.76;100.00;60361.69;5029720;28;20053;-73
2022/07/21 07:40:28;;;;;;;6.88;2.40;;;;;;;-147.76;100.00;60361.69;5030775;28;20071;-73
2022/07/21 07:42:55;;;;;;;5.25;1.92;;;;;;;-147.76;100.00;60361.69;5030152;28;20049;-73
2022/07/21 07:45:23;;;;;;;6.80;2.70;;;;;;;-147.76;100.00;60361.69;5029598;28;20045;-73
2022/07/21 07:47:51;;;;;;;5.53;2.35;;;;;;;-147.76;100.00;60361.69;5029757;28;20049;-72
2022/07/21 07:50:18;;;;;;;8.18;2.30;;;;;;;-147.76;100.00;60361.69;5029935;28;20045;-72
2022/07/21 07:52:46;;;;;;;4.78;2.38;;;;;;;-147.76;100.00;60361.69;5028644;28;20396;-73
2022/07/21 07:55:14;;;;;;;7.53;2.20;;;;;;;-147.76;100.00;60361.69;5030120;28;20519;-72
2022/07/21 07:57:43;;;;;;;6.53;2.13;;;;;;;-147.76;100.00;60361.69;5029469;28;20091;-72
2022/07/21 08:00:13;;;;;;;7.47;2.10;;;;;;;-147.76;100.00;60361.69;5029735;28;20060;-73
2022/07/21 08:02:41;;;;;;;5.35;2.20;;;;;;;-147.76;100.00;60361.69;5029805;28;20055;-73
2022/07/21 08:05:09;;;;;;;4.10;2.10;;;;;;;-147.76;100.00;60361.69;5029532;28;20061;-73
2022/07/21 08:07:38;;;;;;;5.53;2.00;;;;;;;-147.76;100.00;60361.69;5029371;28;20107;-73
2022/07/21 08:10:06;;;;;;;3.72;2.10;;;;;;;-147.76;100.00;60361.69;5029561;28;20494;-72
2022/07/21 08:12:33;;;;;;;7.88;3.63;;;;;;;-147.76;100.00;60361.69;5029763;28;20156;-74
2022/07/21 08:15:03;;;;;;;5.65;2.40;;;;;;;-147.76;100.00;60361.69;5029021;28;20445;-75
2022/07/21 08:17:31;;;;;;;5.30;2.45;;;;;;;-147.76;100.00;60361.69;5029692;28;20049;-73
2022/07/21 08:19:59;;;;;;;5.45;2.20;;;;;;;-147.76;100.00;60361.69;5029846;28;20498;-72
2022/07/21 08:22:27;;;;;;;5.78;2.17;;;;;;;-147.76;100.00;60361.69;5029264;28;20048;-73
2022/07/21 08:24:54;;;;;;;6.95;2.38;;;;;;;-147.76;100.00;60361.69;5029582;28;20049;-72
2022/07/21 08:27:21;;;;;;;4.65;2.10;;;;;;;-147.76;100.00;60361.69;5029575;28;20042;-72
2022/07/21 08:29:49;;;;;;;4.65;2.20;;;;;;;-147.76;100.00;60361.69;5029270;28;20450;-76
2022/07/21 08:32:18;;;;;;;2.97;2.03;;;;;;;-147.76;100.00;60361.69;5029302;28;20049;-78
2022/07/21 08:34:46;;;;;;;4.57;2.72;;;;;;;-147.76;100.00;60361.69;5029510;28;20076;-76
2022/07/21 08:37:14;;;;;;;3.40;2.20;;;;;;;-147.76;100.00;60361.69;5029045;28;20049;-77
2022/07/21 08:39:41;;;;;;;4.07;2.10;;;;;;;-147.76;100.00;60361.69;5028893;28;20056;-77
2022/07/21 08:42:09;;;;;;;6.55;1.92;;;;;;;-147.76;100.00;60361.69;5029522;28;20140;-74
2022/07/21 08:44:37;;;;;;;6.72;2.13;;;;;;;-147.76;100.00;60361.69;5028607;28;20049;-77
2022/07/21 08:47:05;;;;;;;4.88;2.15;;;;;;;-147.76;100.00;60361.69;5027821;28;20045;-76
2022/07/21 08:49:35;;;;;;;8.52;2.13;;;;;;;-147.76;100.00;60361.69;5010935;28;20411;-73
2022/07/21 08:52:03;;;;;;;7.80;2.08;;;;;;;-147.76;100.00;60361.69;5023302;28;20296;-74
2022/07/21 08:54:32;;;;;;;4.18;2.08;;;;;;;-147.76;100.00;60361.69;5032054;28;20037;-75
2022/07/21 08:56:59;;;;;;;3.92;2.08;;;;;;;-147.76;100.00;60361.69;5032027;28;20049;-75
2022/07/21 08:59:27;;;;;;;6.13;2.13;;;;;;;-147.76;100.00;60361.69;5032277;28;20410;-76
2022/07/21 09:01:55;;;;;;;5.35;2.38;;;;;;;-147.76;100.00;60361.69;5031866;28;20049;-72
2022/07/21 09:04:25;;;;;;;7.93;2.00;;;;;;;-147.76;100.00;60361.69;5034524;28;20049;-75
2022/07/21 09:06:58;;;;;;;7.07;2.17;;;;;;;-147.76;100.00;60361.69;5035542;28;20056;-79
2022/07/21 09:09:26;;;;;;;6.93;2.60;;;;;;;-147.76;100.00;60361.69;5033663;28;20068;-74
2022/07/21 09:11:54;;;;;;;7.93;2.90;;;;;;;-147.76;100.00;60361.69;5035775;28;20391;-75
2022/07/21 09:14:24;;;;;;;6.05;2.40;;;;;;;-147.76;100.00;60361.69;5033237;28;20490;-72
2022/07/21 09:16:53;;;;;;;5.65;2.30;;;;;;;-147.76;100.00;60361.69;5036738;28;20049;-77
2022/07/21 09:19:23;;;;;;;5.20;2.30;;;;;;;-147.76;100.00;60361.69;5032797;28;20407;-74
2022/07/21 09:21:53;;;;;;;6.75;2.30;;;;;;;17.21;87.73;100221.56;5036085;28;20042;-76
2022/07/21 09:24:28;;;;;;;6.70;2.15;;;;;;;23.85;100.00;81705.50;5033261;28;20048;-72
2022/07/21 09:27:05;;;;;;;4.30;2.25;;;;;;;-147.76;100.00;60361.69;5036386;28;20074;-76
2022/07/21 09:29:37;;;;;;;3.85;2.17;;;;;;;-147.76;100.00;60361.69;5036775;28;20046;-75
2022/07/21 09:32:23;;;;;;;4.65;2.10;;;;;;;-147.76;100.00;60361.69;5037543;28;20045;-78
2022/07/21 09:34:52;;;;;;;;;;;;;;;-147.76;100.00;60361.69;5036027;28;20049;-77
2022/07/21 09:37:20;;;;;;;5.60;2.17;;;;;;;-147.76;100.00;60361.69;5036056;28;19928;-77
2022/07/21 09:39:51;;;;;;;5.03;2.22;;;;;;;-147.76;100.00;60361.69;5034434;28;20056;-73
2022/07/21 09:42:22;;;;;;;4.50;2.20;;;;;;;-147.76;100.00;60361.69;5033588;28;20050;-74
2022/07/21 09:44:51;;;;;;;5.35;2.30;;;;;;;-147.76;100.00;60361.69;5033742;28;20049;-76
2022/07/21 09:47:20;;;;;;;4.60;2.15;;;;;;;-147.76;100.00;60361.69;5031952;28;20053;-75
2022/07/21 09:49:48;;;;;;;6.13;2.78;;;;;;;-147.76;100.00;60361.69;5032063;28;20045;-72
2022/07/21 09:52:24;;;;;;;4.57;2.30;;;;;;;-147.76;100.00;60361.69;5032234;28;20049;-73
2022/07/21 09:54:52;;;;;;;;;;;;;;;-147.76;100.00;60361.69;5032453;28;20049;-73
2022/07/21 09:57:21;;;;;;;5.10;2.38;;;;;;;-147.76;100.00;60361.69;5031621;28;19929;-72
2022/07/21 09:59:50;;;;;;;5.85;2.40;;;;;;;-147.76;100.00;60361.69;5034158;28;20046;-77
2022/07/21 10:02:20;;;;;;;6.70;2.20;;;;;;;-147.76;100.00;60361.69;5034522;28;20045;-74
2022/07/21 10:04:52;;;;;;;3.92;2.10;;;;;;;-147.76;100.00;60361.69;5037640;28;20406;-77
2022/07/21 10:07:20;;;;;;;4.10;2.22;;;;;;;-147.76;100.00;60361.69;5035047;28;20044;-73
2022/07/21 10:09:48;;;;;;;4.63;2.13;;;;;;;-147.76;100.00;60361.69;5030414;28;20037;-74
2022/07/21 10:12:18;;;;;;;5.03;2.30;;;;;;;-147.76;100.00;60361.69;5033773;28;20407;-76
2022/07/21 10:14:47;;;;;;;7.00;2.40;;;;;;;-147.76;100.00;60361.69;5031289;28;20042;-75
2022/07/21 10:17:15;;;;;;;5.30;2.08;;;;;;;-147.76;100.00;60361.69;5034265;28;20486;-75
2022/07/21 10:19:55;;;;;;;8.15;2.17;;;;;;;-147.76;100.00;60361.69;5034491;28;20045;-73
2022/07/21 10:22:30;;;;;;;3.78;2.00;;;;;;;-147.76;100.00;60361.69;5035707;28;20117;-74
2022/07/21 10:24:58;;;;;;;4.82;2.17;;;;;;;-147.76;100.00;60361.69;5038112;28;20100;-74
2022/07/21 10:27:27;;;;;;;3.80;2.13;;;;;;;-147.76;100.00;60361.69;5032082;28;20625;-74
2022/07/21 10:30:00;;;;;;;5.45;2.30;;;;;;;-147.76;100.00;60361.69;5034250;28;20049;-73
2022/07/21 10:32:31;;;;;;;5.32;2.20;;;;;;;-147.76;100.00;60361.69;5032439;28;20046;-74
2022/07/21 10:35:04;;;;;;;5.65;2.30;;;;;;;-147.76;100.00;60361.69;5035308;28;20045;-73
2022/07/21 10:37:50;;;;;;;5.30;2.70;;;;;;;-147.76;100.00;60361.69;5035334;28;20445;-73
2022/07/21 10:40:39;;;;;;;5.47;2.15;;;;;;;-147.76;100.00;60361.69;5032320;28;20048;-75
2022/07/21 10:43:41;;;;;;;3.42;2.13;;;;;;;-147.76;100.00;60361.69;5036354;28;20056;-74
2022/07/21 10:46:37;;;;;;;6.15;2.40;;;;;;;-147.76;100.00;60361.69;4972694;28;20049;-74
2022/07/21 10:49:09;;;;;;;4.97;1.98;;;;;;;-147.76;100.00;60361.69;4972134;28;20503;-75
2022/07/21 10:51:38;;;;;;;3.85;2.10;;;;;;;-147.76;100.00;60361.69;4972042;28;20098;-75
2022/07/21 10:54:25;;;;;;;8.73;2.72;;;;;;;-147.76;100.00;60361.69;4973060;28;20102;-75
2022/07/21 10:57:30;;;;;;;6.85;2.25;;;;;;;-147.76;100.00;60361.69;4971296;28;20051;-75
2022/07/21 11:00:27;;;;;;;4.82;2.20;;;;;;;-147.76;100.00;60361.69;4971973;28;20066;-75
2022/07/21 11:03:00;;;;;;;6.43;2.30;;;;;;;-147.76;100.00;60361.69;4935608;29;20150;-75
2022/07/21 11:05:29;;;;;;;6.15;2.40;;;;;;;-147.76;100.00;60361.69;4930687;29;20056;-75
2022/07/21 11:08:13;;;;;;;5.30;2.28;;;;;;;-147.76;100.00;60361.69;4934928;29;20062;-75
2022/07/21 11:10:43;;;;;;;4.95;2.10;;;;;;;-147.76;100.00;60361.69;4934999;29;20059;-75
2022/07/21 11:13:11;;;;;;;4.60;2.30;;;;;;;-147.76;100.00;60361.69;4934540;29;20508;-75
2022/07/21 11:15:47;;;;;;;6.57;2.50;;;;;;;-147.76;100.00;60361.69;4934411;29;20048;-76
2022/07/21 11:18:18;;;;;;;5.20;2.22;;;;;;;-147.76;100.00;60361.69;4936016;29;20055;-75
2022/07/21 11:21:09;;;;;;;3.88;2.00;;;;;;;-147.76;100.00;60361.69;4949832;29;20082;-74